createdAt,value
2023-05-10T00:00:16.341Z,99629.19
2023-05-10T00:02:47.083Z,99629.19
2023-05-10T00:05:16.870Z,99631.66
2023-05-10T00:07:47.345Z,99627.28
2023-05-10T00:10:19.648Z,99619.22
2023-05-10T00:12:49.374Z,99632.41
2023-05-10T00:15:19.418Z,99632.41
2023-05-10T00:17:49.161Z,99623.47
2023-05-10T00:20:19.157Z,99627.81
2023-05-10T00:22:49.014Z,99623.38
2023-05-10T00:25:22.638Z,99621.56
2023-05-10T00:27:52.341Z,99619.84
2023-05-10T00:30:22.092Z,99626.13
2023-05-10T00:32:52.906Z,99627.09
2023-05-10T00:35:22.875Z,99619.13
2023-05-10T00:37:52.551Z,99624.44
2023-05-10T00:40:24.878Z,99608.47
2023-05-10T00:42:59.395Z,99627.94
2023-05-10T00:45:29.091Z,99613.81
2023-05-10T00:48:00.967Z,99612.81
2023-05-10T00:50:30.762Z,99620.91
2023-05-10T00:53:00.722Z,99615.59
2023-05-10T00:55:33.198Z,99619.13
2023-05-10T00:58:02.911Z,99621.78
2023-05-10T01:00:32.786Z,99621.78
2023-05-10T01:03:02.852Z,99620.06
2023-05-10T01:05:33.035Z,99620.91
2023-05-10T01:08:03.652Z,99620.06
2023-05-10T01:10:36.068Z,99621.78
2023-05-10T01:13:06.201Z,99624.53
2023-05-10T01:15:36.114Z,99621.88
2023-05-10T01:18:06.078Z,99616.63
2023-05-10T01:20:40.425Z,99628.16
2023-05-10T01:23:38.823Z,99620.28
2023-05-10T01:26:29.888Z,99624.72
2023-05-10T01:29:30.519Z,99613.25
2023-05-10T01:32:15.269Z,99616.84
2023-05-10T01:34:47.799Z,99618.78
2023-05-10T01:37:23.521Z,99630.38
2023-05-10T01:39:56.985Z,99632.19
2023-05-10T01:42:29.387Z,99634.91
2023-05-10T01:45:02.709Z,99639.50
2023-05-10T01:47:40.829Z,99636.19
2023-05-10T01:50:14.521Z,99632.78
2023-05-10T01:52:46.579Z,99637.22
2023-05-10T01:55:18.594Z,99635.72
2023-05-10T01:57:50.400Z,99644.00
2023-05-10T02:00:20.550Z,99641.75
2023-05-10T02:02:53.770Z,99642.06
2023-05-10T02:05:24.608Z,99640.56
2023-05-10T02:07:55.523Z,99640.97
2023-05-10T02:10:25.386Z,99646.47
2023-05-10T02:12:55.998Z,99640.31
2023-05-10T02:15:28.126Z,99648.16
2023-05-10T02:18:02.642Z,99642.84
2023-05-10T02:20:34.111Z,99646.28
2023-05-10T02:23:04.861Z,99643.69
2023-05-10T02:25:35.587Z,99650.72
2023-05-10T02:28:07.148Z,99655.00
2023-05-10T02:30:39.233Z,99651.38
2023-05-10T02:33:11.780Z,99655.75
2023-05-10T02:35:42.090Z,99657.53
2023-05-10T02:38:12.857Z,99660.41
2023-05-10T02:40:44.894Z,99651.59
2023-05-10T02:43:17.545Z,99671.88
2023-05-10T02:45:47.601Z,99667.34
2023-05-10T02:48:20.007Z,99671.59
2023-05-10T02:50:52.573Z,99670.63
2023-05-10T02:53:26.350Z,99667.91
2023-05-10T02:55:56.939Z,99668.63
2023-05-10T02:58:26.656Z,99668.44
2023-05-10T03:00:56.424Z,99669.19
2023-05-10T03:03:28.692Z,99666.53
2023-05-10T03:05:59.610Z,99666.44
2023-05-10T03:08:30.442Z,99675.25
2023-05-10T03:11:15.017Z,99668.25
2023-05-10T03:13:50.286Z,99671.63
2023-05-10T03:16:23.495Z,99671.63
2023-05-10T03:19:00.679Z,99673.47
2023-05-10T03:21:32.897Z,99665.47
2023-05-10T03:24:06.856Z,99667.16
2023-05-10T03:26:36.996Z,99673.25
2023-05-10T03:29:19.975Z,99684.53
2023-05-10T03:31:49.933Z,99681.69
2023-05-10T03:34:27.336Z,99681.47
2023-05-10T03:36:57.044Z,99683.19
2023-05-10T03:39:28.545Z,99689.16
2023-05-10T03:42:01.422Z,99689.16
2023-05-10T03:44:31.167Z,99690.00
2023-05-10T03:47:00.982Z,99688.97
2023-05-10T03:49:33.377Z,99694.28
2023-05-10T03:52:03.233Z,99689.78
2023-05-10T03:54:33.334Z,99693.41
2023-05-10T03:57:04.039Z,99698.72
2023-05-10T03:59:34.219Z,99704.03
2023-05-10T04:02:04.046Z,99697.03
2023-05-10T04:04:36.428Z,99705.00
2023-05-10T04:07:06.742Z,99697.97
2023-05-10T04:09:36.413Z,99698.72
2023-05-10T04:12:07.992Z,99704.03
2023-05-10T04:14:38.737Z,99696.06
2023-05-10T04:17:08.554Z,99705.75
2023-05-10T04:19:40.936Z,99696.81
2023-05-10T04:22:10.620Z,99695.78
2023-05-10T04:24:40.390Z,99695.66
2023-05-10T04:27:10.076Z,99696.41
2023-05-10T04:29:39.748Z,99703.34
2023-05-10T04:32:09.431Z,99697.06
2023-05-10T04:34:41.705Z,99697.72
2023-05-10T04:37:11.395Z,99694.13
2023-05-10T04:39:42.323Z,99697.72
2023-05-10T04:42:12.526Z,99700.38
2023-05-10T04:44:42.170Z,99705.81
2023-05-10T04:47:12.929Z,99700.50
2023-05-10T04:49:45.309Z,99704.84
2023-05-10T04:52:16.183Z,99706.44
2023-05-10T04:54:45.880Z,99708.25
2023-05-10T04:57:15.668Z,99706.25
2023-05-10T04:59:48.023Z,99718.59
2023-05-10T05:02:19.876Z,99711.38
2023-05-10T05:04:52.495Z,99721.78
2023-05-10T05:07:22.249Z,99714.59
2023-05-10T05:09:51.906Z,99714.38
2023-05-10T05:12:21.575Z,99723.13
2023-05-10T05:14:51.239Z,99730.16
2023-05-10T05:17:20.913Z,99722.28
2023-05-10T05:19:53.259Z,99733.84
2023-05-10T05:22:28.505Z,99732.06
2023-05-10T05:24:59.255Z,99733.75
2023-05-10T05:27:29.114Z,99734.63
2023-05-10T05:29:59.116Z,99747.81
2023-05-10T05:32:29.306Z,99740.69
2023-05-10T05:35:01.621Z,99740.41
2023-05-10T05:37:31.314Z,99745.28
2023-05-10T05:40:02.786Z,99751.06
2023-05-10T05:42:32.480Z,99758.53
2023-05-10T05:45:02.196Z,99762.50
2023-05-10T05:47:31.877Z,99759.41
2023-05-10T05:50:04.174Z,99760.88
2023-05-10T05:52:34.326Z,99759.00
2023-05-10T05:55:04.008Z,99763.38
2023-05-10T05:57:34.147Z,99767.75
2023-05-10T06:00:04.221Z,99766.03
2023-05-10T06:02:42.319Z,99772.31
2023-05-10T06:05:15.451Z,99773.25
2023-05-10T06:07:45.632Z,99776.88
2023-05-10T06:10:15.378Z,99783.06
2023-05-10T06:12:45.113Z,99778.56
2023-05-10T06:15:15.297Z,99780.50
2023-05-10T06:17:45.446Z,99788.59
2023-05-10T06:20:18.381Z,99780.69
2023-05-10T06:22:48.137Z,99788.66
2023-05-10T06:25:19.353Z,99792.31
2023-05-10T06:27:52.664Z,99793.38
2023-05-10T06:30:24.224Z,99798.81
2023-05-10T06:32:53.889Z,99806.88
2023-05-10T06:35:26.384Z,99803.47
2023-05-10T06:37:56.561Z,99806.00
2023-05-10T06:40:26.249Z,99808.47
2023-05-10T06:42:56.153Z,99808.28
2023-05-10T06:45:25.973Z,99806.34
2023-05-10T06:47:56.029Z,99816.06
2023-05-10T06:50:28.476Z,99812.44
2023-05-10T06:52:58.174Z,99814.25
2023-05-10T06:55:28.200Z,99809.88
2023-05-10T06:57:58.212Z,99820.53
2023-05-10T07:00:28.238Z,99827.75
2023-05-10T07:02:58.123Z,99828.81
2023-05-10T07:05:31.156Z,99822.84
2023-05-10T07:08:01.001Z,99826.03
2023-05-10T07:10:30.993Z,99825.56
2023-05-10T07:13:01.621Z,99824.16
2023-05-10T07:15:31.868Z,99828.09
2023-05-10T07:18:01.702Z,99827.41
2023-05-10T07:20:34.559Z,99825.91
2023-05-10T07:23:04.292Z,99826.84
2023-05-10T07:25:34.009Z,99832.94
2023-05-10T07:28:03.718Z,99831.38
2023-05-10T07:30:33.373Z,99836.25
2023-05-10T07:33:03.109Z,99829.31
2023-05-10T07:35:35.337Z,99832.75
2023-05-10T07:38:04.993Z,99837.34
2023-05-10T07:40:34.703Z,99833.63
2023-05-10T07:43:04.867Z,99837.59
2023-05-10T07:45:34.563Z,99837.16
2023-05-10T07:48:04.276Z,99832.56
2023-05-10T07:50:36.530Z,99846.63
2023-05-10T07:53:06.282Z,99840.13
2023-05-10T07:55:35.988Z,99843.09
2023-05-10T07:58:05.706Z,99834.22
2023-05-10T08:00:35.387Z,99836.00
2023-05-10T08:03:05.116Z,99847.19
2023-05-10T08:05:37.511Z,99841.44
2023-05-10T08:08:07.230Z,99841.09
2023-05-10T08:10:36.932Z,99836.91
2023-05-10T08:13:07.227Z,99844.97
2023-05-10T08:15:36.942Z,99846.09
2023-05-10T08:18:06.912Z,99852.44
2023-05-10T08:20:39.229Z,99852.75
2023-05-10T08:23:09.004Z,99855.00
2023-05-10T08:25:38.766Z,99855.47
2023-05-10T08:28:09.999Z,99854.59
2023-05-10T08:30:41.201Z,99851.75
2023-05-10T08:33:10.897Z,99861.00
2023-05-10T08:35:43.187Z,99865.09
2023-05-10T08:38:13.830Z,99870.03
2023-05-10T08:40:45.724Z,99863.66
2023-05-10T08:43:16.587Z,99870.84
2023-05-10T08:45:48.126Z,99878.84
2023-05-10T08:48:18.098Z,99876.72
2023-05-10T08:50:50.467Z,99882.28
2023-05-10T08:53:20.366Z,99886.31
2023-05-10T08:55:50.183Z,99889.50
2023-05-10T08:58:20.636Z,99881.56
2023-05-10T09:00:52.641Z,99890.66
2023-05-10T09:03:22.330Z,99891.28
2023-05-10T09:05:54.723Z,99891.22
2023-05-10T09:08:26.474Z,99896.75
2023-05-10T09:10:56.898Z,99885.41
2023-05-10T09:13:27.518Z,99889.69
2023-05-10T09:15:58.848Z,99894.63
2023-05-10T09:18:32.146Z,99894.44
2023-05-10T09:21:04.401Z,99886.44
2023-05-10T09:23:34.153Z,99895.47
2023-05-10T09:26:07.155Z,99898.72
2023-05-10T09:28:37.226Z,99905.28
2023-05-10T09:31:06.921Z,99900.50
2023-05-10T09:33:48.190Z,99906.88
2023-05-10T09:36:20.771Z,99911.81
2023-05-10T09:38:52.955Z,99914.56
2023-05-10T09:41:23.274Z,99918.22
2023-05-10T09:43:53.669Z,99920.59
2023-05-10T09:46:23.737Z,99920.91
2023-05-10T09:48:53.461Z,99916.69
2023-05-10T09:51:28.041Z,99920.28
2023-05-10T09:54:13.446Z,99917.75
2023-05-10T09:56:43.284Z,99930.22
2023-05-10T09:59:14.534Z,99924.88
2023-05-10T10:01:45.044Z,99926.06
2023-05-10T10:04:14.820Z,99932.56
2023-05-10T10:06:47.112Z,99936.31
2023-05-10T10:09:19.667Z,99934.50
2023-05-10T10:11:49.345Z,99932.78
2023-05-10T10:14:19.030Z,99931.72
2023-05-10T10:16:59.893Z,99928.63
2023-05-10T10:19:38.211Z,99927.94
2023-05-10T10:22:12.822Z,99932.00
2023-05-10T10:24:43.591Z,99937.06
2023-05-10T10:27:19.853Z,99936.69
2023-05-10T10:29:57.376Z,99939.66
2023-05-10T10:35:02.885Z,99940.25
2023-05-10T10:37:50.923Z,99944.66
2023-05-10T10:40:28.982Z,99936.13
2023-05-10T10:42:59.670Z,99940.63
2023-05-10T10:45:29.608Z,99944.88
2023-05-10T10:48:25.968Z,99940.47
2023-05-10T10:51:00.718Z,99944.47
2023-05-10T10:53:33.420Z,99942.06
2023-05-10T10:56:11.321Z,99942.56
2023-05-10T10:58:42.260Z,99944.50
2023-05-10T11:01:16.441Z,99946.56
2023-05-10T11:04:20.811Z,99946.06
2023-05-10T11:06:50.836Z,99941.28
2023-05-10T11:09:23.153Z,99940.03
2023-05-10T11:11:53.427Z,99944.66
2023-05-10T11:14:24.763Z,99946.22
2023-05-10T11:16:54.814Z,99948.91
2023-05-10T11:19:24.467Z,99945.63
2023-05-10T11:21:55.955Z,99944.53
2023-05-10T11:24:31.120Z,99954.19
2023-05-10T11:27:01.058Z,99959.13
2023-05-10T11:29:31.384Z,99968.97
2023-05-10T11:32:02.149Z,99963.63
2023-05-10T11:34:34.846Z,99968.03
2023-05-10T11:37:04.770Z,99969.22
2023-05-10T11:39:37.273Z,99976.03
2023-05-10T11:42:06.934Z,99963.13
2023-05-10T11:44:37.009Z,99960.78
2023-05-10T11:47:06.739Z,99960.66
2023-05-10T11:49:36.448Z,99963.31
2023-05-10T11:52:10.010Z,99963.47
2023-05-10T11:54:49.214Z,99969.66
2023-05-10T11:57:18.882Z,99977.84
2023-05-10T11:59:49.180Z,99971.66
2023-05-10T12:02:18.931Z,99976.75
2023-05-10T12:04:48.771Z,99974.91
2023-05-10T12:07:18.476Z,99964.06
2023-05-10T12:10:06.724Z,99964.44
2023-05-10T12:12:42.947Z,99977.81
2023-05-10T12:15:16.958Z,99975.88
2023-05-10T12:17:48.070Z,99971.94
2023-05-10T12:20:19.552Z,99982.47
2023-05-10T12:22:50.752Z,99977.47
2023-05-10T12:25:24.937Z,99985.28
2023-05-10T12:27:56.100Z,99981.66
2023-05-10T12:30:26.505Z,99985.25
2023-05-10T12:32:56.974Z,99978.56
2023-05-10T12:35:27.051Z,99987.75
2023-05-10T12:37:56.747Z,99985.88
2023-05-10T12:40:29.514Z,99989.25
2023-05-10T12:42:59.212Z,99990.34
2023-05-10T12:45:28.962Z,99993.63
2023-05-10T12:47:58.634Z,99996.81
2023-05-10T12:50:28.351Z,100003.28
2023-05-10T12:52:58.114Z,100006.34
2023-05-10T12:55:30.388Z,100010.59
2023-05-10T12:58:00.073Z,100005.59
2023-05-10T13:00:29.880Z,100010.47
2023-05-10T13:02:59.624Z,100007.41
2023-05-10T13:05:29.309Z,100006.06
2023-05-10T13:07:59.073Z,100005.41
2023-05-10T13:10:32.979Z,100011.59
2023-05-10T13:13:02.621Z,100010.66
2023-05-10T13:15:32.543Z,100010.53
2023-05-10T13:18:02.379Z,100009.44
2023-05-10T13:20:32.127Z,100017.97
2023-05-10T13:23:01.804Z,100021.25
2023-05-10T13:25:35.657Z,100022.13
2023-05-10T13:28:05.173Z,100020.28
2023-05-10T13:30:34.972Z,100023.31
2023-05-10T13:33:04.702Z,100019.06
2023-05-10T13:35:34.405Z,100016.38
2023-05-10T13:38:04.321Z,100019.06
2023-05-10T13:40:37.086Z,100019.41
2023-05-10T13:43:06.801Z,100012.81
2023-05-10T13:45:36.851Z,100024.19
2023-05-10T13:48:07.014Z,100015.56
2023-05-10T13:50:36.711Z,100023.69
2023-05-10T13:53:06.551Z,100016.28
2023-05-10T13:55:38.809Z,100016.56
2023-05-10T13:58:08.446Z,100018.22
2023-05-10T14:00:38.086Z,100012.09
2023-05-10T14:03:10.243Z,100005.94
2023-05-10T14:05:40.215Z,100001.84
2023-05-10T14:08:10.539Z,99998.56
2023-05-10T14:10:43.073Z,99997.91
2023-05-10T14:13:13.337Z,99994.25
2023-05-10T14:15:43.065Z,99998.59
2023-05-10T14:18:12.740Z,99992.09
2023-05-10T14:20:42.403Z,99992.09
2023-05-10T14:23:12.343Z,99990.78
2023-05-10T14:25:44.856Z,99997.91
2023-05-10T14:28:15.563Z,99996.47
2023-05-10T14:30:45.226Z,100000.59
2023-05-10T14:33:14.909Z,99996.75
2023-05-10T14:35:44.555Z,99995.78
2023-05-10T14:38:14.520Z,100003.38
2023-05-10T14:40:46.867Z,99998.28
2023-05-10T14:43:16.493Z,100002.44
2023-05-10T14:45:46.446Z,100003.50
2023-05-10T14:48:18.352Z,99999.53
2023-05-10T14:50:50.745Z,100005.00
2023-05-10T14:53:20.409Z,99994.22
2023-05-10T14:55:52.832Z,99994.50
2023-05-10T14:58:22.537Z,99997.41
2023-05-10T15:00:52.206Z,100002.06
2023-05-10T15:03:22.484Z,100003.53
2023-05-10T15:05:52.794Z,100005.97
2023-05-10T15:08:22.833Z,100004.88
2023-05-10T15:10:56.723Z,99995.75
2023-05-10T15:13:26.215Z,99999.25
2023-05-10T15:15:56.037Z,99998.16
2023-05-10T15:18:25.783Z,99996.09
2023-05-10T15:20:56.429Z,99995.63
2023-05-10T15:23:26.448Z,99994.75
2023-05-10T15:25:58.784Z,100000.59
2023-05-10T15:28:28.594Z,100000.97
2023-05-10T15:30:58.774Z,100001.84
2023-05-10T15:33:28.817Z,100005.38
2023-05-10T15:35:58.957Z,100004.25
2023-05-10T15:38:28.799Z,99999.16
2023-05-10T15:41:02.437Z,99990.50
2023-05-10T15:43:32.082Z,99983.13
2023-05-10T15:46:01.967Z,99984.88
2023-05-10T15:48:32.477Z,99994.44
2023-05-10T15:51:02.173Z,100006.47
2023-05-10T15:53:31.934Z,100004.28
2023-05-10T15:56:04.352Z,100009.22
2023-05-10T15:58:34.048Z,100003.75
2023-05-10T16:01:04.303Z,100006.31
2023-05-10T16:03:35.330Z,100002.91
2023-05-10T16:06:07.084Z,100004.28
2023-05-10T16:08:36.984Z,100002.34
2023-05-10T16:11:10.531Z,100004.69
2023-05-10T16:13:40.209Z,100001.66
2023-05-10T16:16:11.301Z,100015.22
2023-05-10T16:18:42.031Z,100006.19
2023-05-10T16:21:11.899Z,100008.50
2023-05-10T16:23:41.565Z,100011.91
2023-05-10T16:26:13.850Z,100010.19
2023-05-10T16:28:43.636Z,100011.28
2023-05-10T16:31:13.955Z,100021.44
2023-05-10T16:33:43.799Z,100015.22
2023-05-10T16:36:13.523Z,100013.41
2023-05-10T16:38:43.193Z,100014.38
2023-05-10T16:41:15.741Z,100018.03
2023-05-10T16:43:45.747Z,100020.13
2023-05-10T16:46:15.732Z,100013.69
2023-05-10T16:48:45.384Z,100020.66
2023-05-10T16:51:15.412Z,100018.59
2023-05-10T16:53:45.080Z,100014.13
2023-05-10T16:56:18.454Z,100020.44
2023-05-10T16:58:50.076Z,100024.94
2023-05-10T17:01:19.909Z,100030.56
2023-05-10T17:03:49.817Z,100033.22
2023-05-10T17:06:19.629Z,100037.94
2023-05-10T17:08:49.662Z,100048.56
2023-05-10T17:11:22.428Z,100058.00
2023-05-10T17:13:52.565Z,100058.69
2023-05-10T17:16:22.589Z,100071.44
2023-05-10T17:18:52.487Z,100070.47
2023-05-10T17:21:22.274Z,100073.53
2023-05-10T17:23:51.895Z,100078.19
2023-05-10T17:26:24.123Z,100079.22
2023-05-10T17:28:55.776Z,100081.91
2023-05-10T17:31:26.673Z,100087.47
2023-05-10T17:33:56.342Z,100092.94
2023-05-10T17:36:26.010Z,100094.59
2023-05-10T17:38:55.688Z,100101.31
2023-05-10T17:41:27.972Z,100101.94
2023-05-10T17:43:57.709Z,100099.75
2023-05-10T17:46:27.454Z,100106.31
2023-05-10T17:48:57.157Z,100103.06
2023-05-10T17:51:27.050Z,100112.97
2023-05-10T17:53:56.690Z,100111.25
2023-05-10T17:56:29.139Z,100113.81
2023-05-10T17:58:58.824Z,100114.75
2023-05-10T18:01:28.527Z,100116.00
2023-05-10T18:03:58.214Z,100112.09
2023-05-10T18:06:28.216Z,100110.94
2023-05-10T18:08:58.027Z,100117.34
2023-05-10T18:11:30.298Z,100118.44
2023-05-10T18:13:59.916Z,100114.03
2023-05-10T18:16:33.132Z,100116.53
2023-05-10T18:19:05.942Z,100126.72
2023-05-10T18:21:35.772Z,100129.66
2023-05-10T18:24:09.399Z,100124.88
2023-05-10T18:26:42.173Z,100131.63
2023-05-10T18:29:12.014Z,100131.22
2023-05-10T18:31:41.948Z,100130.63
2023-05-10T18:34:11.733Z,100125.47
2023-05-10T18:36:43.701Z,100124.72
2023-05-10T18:39:13.568Z,100131.84
2023-05-10T18:41:45.854Z,100136.19
2023-05-10T18:44:15.633Z,100123.88
2023-05-10T18:46:45.367Z,100135.34
2023-05-10T18:49:15.137Z,100132.78
2023-05-10T18:51:44.837Z,100137.22
2023-05-10T18:54:14.463Z,100131.06
2023-05-10T18:56:47.455Z,100133.69
2023-05-10T18:59:17.143Z,100139.84
2023-05-10T19:01:47.491Z,100135.66
2023-05-10T19:04:18.600Z,100141.16
2023-05-10T19:06:48.283Z,100145.63
2023-05-10T19:09:20.245Z,100139.59
2023-05-10T19:11:53.627Z,100146.81
2023-05-10T19:14:25.026Z,100146.09
2023-05-10T19:16:54.774Z,100152.34
2023-05-10T19:19:24.760Z,100153.38
2023-05-10T19:21:56.861Z,100159.66
2023-05-10T19:24:26.563Z,100153.47
2023-05-10T19:27:01.293Z,100150.03
2023-05-10T19:29:31.633Z,100154.47
2023-05-10T19:32:01.443Z,100155.44
2023-05-10T19:34:31.209Z,100160.75
2023-05-10T19:37:01.255Z,100163.47
2023-05-10T19:39:32.768Z,100163.41
2023-05-10T19:42:05.466Z,100163.41
2023-05-10T19:44:35.123Z,100161.59
2023-05-10T19:47:05.355Z,100170.41
2023-05-10T19:49:36.335Z,100167.66
2023-05-10T19:52:07.936Z,100173.69
2023-05-10T19:54:38.233Z,100169.16
2023-05-10T19:57:12.092Z,100168.19
2023-05-10T19:59:43.084Z,100175.22
2023-05-10T20:02:12.750Z,100183.97
2023-05-10T20:04:42.470Z,100180.38
2023-05-10T20:07:12.565Z,100175.94
2023-05-10T20:09:42.217Z,100183.81
2023-05-10T20:12:14.747Z,100178.50
2023-05-10T20:14:44.696Z,100175.75
2023-05-10T20:17:14.475Z,100181.91
2023-05-10T20:19:44.160Z,100175.66
2023-05-10T20:22:13.877Z,100175.56
2023-05-10T20:24:43.512Z,100176.47
2023-05-10T20:27:15.860Z,100179.13
2023-05-10T20:29:45.505Z,100174.72
2023-05-10T20:32:15.173Z,100174.72
2023-05-10T20:34:44.873Z,100173.00
2023-05-10T20:37:14.580Z,100172.25
2023-05-10T20:39:44.456Z,100177.56
2023-05-10T20:42:16.725Z,100171.47
2023-05-10T20:44:46.961Z,100177.72
2023-05-10T20:47:17.091Z,100168.97
2023-05-10T20:49:47.156Z,100174.53
2023-05-10T20:52:17.013Z,100180.88
2023-05-10T20:54:46.797Z,100167.00
2023-05-10T20:57:19.042Z,100168.84
2023-05-10T20:59:48.698Z,100166.38
2023-05-10T21:02:18.401Z,100164.56
2023-05-10T21:04:48.033Z,100168.19
2023-05-10T21:07:18.008Z,100163.72
2023-05-10T21:09:47.635Z,100167.16
2023-05-10T21:12:19.904Z,100169.81
2023-05-10T21:14:49.554Z,100172.47
2023-05-10T21:17:20.208Z,100167.16
2023-05-10T21:19:50.514Z,100168.84
2023-05-10T21:22:20.258Z,100168.84
2023-05-10T21:24:50.068Z,100168.84
2023-05-10T21:27:22.296Z,100175.97
2023-05-10T21:29:52.279Z,100161.84
2023-05-10T21:32:21.997Z,100171.50
2023-05-10T21:34:51.710Z,100178.53
2023-05-10T21:37:21.500Z,100167.91
2023-05-10T21:39:52.944Z,100170.56
2023-05-10T21:42:25.316Z,100169.72
2023-05-10T21:44:54.978Z,100173.31
2023-05-10T21:47:24.903Z,100176.06
2023-05-10T21:49:54.567Z,100172.63
2023-05-10T21:52:24.221Z,100169.16
2023-05-10T21:54:53.986Z,100165.81
2023-05-10T21:57:26.235Z,100169.47
2023-05-10T21:59:56.060Z,100171.38
2023-05-10T22:02:25.932Z,100171.47
2023-05-10T22:04:55.892Z,100173.22
2023-05-10T22:07:25.580Z,100178.53
2023-05-10T22:09:55.253Z,100180.44
2023-05-10T22:12:27.789Z,100183.16
2023-05-10T22:15:09.403Z,100185.88
2023-05-10T22:17:40.858Z,100192.16
2023-05-10T22:20:11.988Z,100184.31
2023-05-10T22:22:41.666Z,100189.03
2023-05-10T22:25:11.878Z,100186.69
2023-05-10T22:27:44.136Z,100181.72
2023-05-10T22:30:14.860Z,100188.25
2023-05-10T22:32:44.578Z,100186.00
2023-05-10T22:35:14.275Z,100188.09
2023-05-10T22:37:43.950Z,100195.44
2023-05-10T22:40:15.111Z,100196.53
2023-05-10T22:42:47.469Z,100193.94
2023-05-10T22:45:17.156Z,100196.59
2023-05-10T22:47:47.372Z,100185.91
2023-05-10T22:50:17.471Z,100181.41
2023-05-10T22:52:47.254Z,100177.81
2023-05-10T22:55:16.973Z,100178.50
2023-05-10T22:57:49.249Z,100183.66
2023-05-10T23:00:19.913Z,100181.78
2023-05-10T23:02:49.865Z,100188.66
2023-05-10T23:05:19.815Z,100193.00
2023-05-10T23:07:53.386Z,100194.66
2023-05-10T23:10:23.127Z,100191.16
2023-05-10T23:12:55.938Z,100198.09
2023-05-10T23:15:25.669Z,100200.59
2023-05-10T23:17:55.429Z,100198.72
2023-05-10T23:20:25.246Z,100202.06
2023-05-10T23:22:54.924Z,100196.63
2023-05-10T23:25:24.690Z,100193.88
2023-05-10T23:27:57.040Z,100196.38
2023-05-10T23:30:26.995Z,100204.25
2023-05-10T23:32:56.980Z,100199.72
2023-05-10T23:35:26.734Z,100199.56
2023-05-10T23:37:56.391Z,100193.16
2023-05-10T23:40:26.673Z,100193.84
2023-05-10T23:42:58.901Z,100191.03
2023-05-10T23:45:28.695Z,100198.00
2023-05-10T23:47:58.430Z,100190.78
2023-05-10T23:50:28.169Z,100200.41
2023-05-10T23:52:57.833Z,100200.31
2023-05-10T23:55:27.562Z,100194.84
2023-05-10T23:57:59.846Z,100193.91
